Latest Weather Observations for Kingscote

IDS60801

Issued at 7:31 am CST Wednesday 2 September 2015 (issued every 30 minutes, with the page automatically refreshed every 10 minutes)

About weather observations | Map of weather stations | Latest weather observations for SA | Other Formats
Station Details ID: 022841 Name: KINGSCOTE AERO Lat: -35.71 Lon: 137.52 Height: 6.23 m
Data from the previous 72 hours. | See also: Recent months at Kingscote
Date/Time
CST
Temp
°C
App
Temp
°C
Dew
Point
Rel
Hum
%
Delta-T
°C
Wind Press
QNH
hPa
Press
MSL
hPa
Rain
since 9 am
mm
Dir
 
Spd
km/h
Gust
km/h
Spd
kts
Gust
kts
02/07:30am 11.6 6.4 9.0 84 1.3 NNW 26 43 14 23 1002.6 1002.6 11.6
02/07:00am 11.1 6.4 9.4 89 0.9 NNW 24 41 13 22 1002.4 1002.4 11.6
02/06:30am 11.4 6.7 9.1 86 1.2 NNW 24 39 13 21 1002.3 1002.3 11.4
02/06:00am 11.7 7.3 9.1 84 1.3 NNW 22 32 12 17 1002.4 1002.4 11.4
02/05:30am 12.0 7.4 9.6 85 1.2 NNW 24 32 13 17 1002.3 1002.3 11.4
02/05:00am 12.1 8.3 9.8 86 1.2 NNW 20 30 11 16 1002.7 1002.7 11.4
02/04:30am 12.1 8.8 9.7 85 1.2 N 17 28 9 15 1002.7 1002.7 11.4
02/04:00am 12.2 9.2 10.8 91 0.7 N 17 28 9 15 1002.8 1002.8 11.4
02/03:30am 12.2 8.6 10.6 90 0.8 N 20 30 11 16 1002.9 1002.9 11.4
02/03:00am 12.3 8.8 10.9 91 0.7 N 20 35 11 19 1003.2 1003.2 11.4
02/02:30am 12.2 8.2 10.6 90 0.8 N 22 39 12 21 1002.6 1002.6 11.4
02/02:00am 12.0 8.1 10.7 92 0.7 N 22 32 12 17 1004.5 1004.5 11.4
02/01:38am 12.0 8.0 10.6 91 0.7 N 22 39 12 21 1004.5 1004.5 11.4
02/01:30am 12.0 7.7 10.6 91 0.7 N 24 37 13 20 1004.5 1004.5 11.4
02/01:13am 11.8 8.4 10.5 92 0.7 N 19 32 10 17 1004.6 1004.6 11.4
02/01:00am 11.7 8.1 10.6 93 0.6 NNE 20 30 11 16 1004.3 1004.3 11.4
02/12:53am 11.7 7.8 10.8 94 0.5 NNE 22 32 12 17 1004.0 1004.0 11.4
02/12:30am 11.8 7.5 10.9 94 0.5 N 24 35 13 19 1005.1 1005.1 11.2
02/12:01am 11.9 9.3 10.8 93 0.6 N 15 20 8 11 1005.6 1005.6 10.0
02/12:00am 11.9 9.3 10.8 93 0.6 N 15 20 8 11 1005.5 1005.5 9.8
 
Date/Time
CST
Temp
°C
App
Temp
°C
Dew
Point
Rel
Hum
%
Delta-T
°C
Wind Press
QNH
hPa
Press
MSL
hPa
Rain
since 9 am
mm
Dir
 
Spd
km/h
Gust
km/h
Spd
kts
Gust
kts
01/11:30pm 12.0 8.6 10.4 90 0.8 N 19 28 10 15 1005.9 1005.9 8.0
01/11:00pm 12.2 8.2 10.4 89 0.9 N 22 33 12 18 1005.9 1005.9 6.6
01/10:30pm 13.1 8.7 10.5 84 1.4 N 24 39 13 21 1006.3 1006.3 5.2
01/10:00pm 13.3 10.2 10.3 82 1.6 N 17 24 9 13 1006.2 1006.2 4.0
01/09:30pm 13.2 10.2 10.6 84 1.4 NNE 17 22 9 12 1006.0 1006.0 3.6
01/09:00pm 13.0 10.2 11.2 89 1.0 N 17 22 9 12 1006.2 1006.2 3.6
01/08:30pm 12.7 9.8 10.9 89 0.9 NNE 17 20 9 11 1005.7 1005.7 3.6
01/08:00pm 12.8 10.8 11.4 91 0.7 NNE 13 20 7 11 1005.8 1005.8 3.6
01/07:30pm 12.8 10.7 11.2 90 0.8 NNE 13 19 7 10 1006.1 1006.1 3.6
01/07:00pm 12.6 10.1 11.0 90 0.8 NNE 15 20 8 11 1006.3 1006.3 3.2
01/06:30pm 11.3 11.4 10.2 93 0.6 CALM 0 0 0 0 1006.4 1006.4 3.0
01/06:00pm 11.2 11.3 10.1 93 0.6 CALM 0 0 0 0 1007.1 1007.1 2.2
01/05:30pm 11.5 11.1 9.8 89 0.9 N 2 7 1 4 1007.0 1007.0 2.2
01/05:00pm 11.5 8.6 9.6 88 1.0 NNE 15 20 8 11 1007.1 1007.1 2.0
01/04:30pm 12.1 10.1 10.2 88 1.0 NE 11 15 6 8 1007.4 1007.4 1.4
01/04:00pm 12.5 9.7 9.9 84 1.3 N 15 20 8 11 1007.6 1007.6 0.8
01/03:30pm 13.6 9.6 9.1 74 2.3 N 20 32 11 17 1007.7 1007.7 0.2
01/03:00pm 15.3 11.2 8.5 64 3.5 N 20 30 11 16 1007.9 1007.9 0.0
01/02:30pm 15.6 11.8 9.1 65 3.3 N 19 30 10 16 1008.0 1008.0 0.0
01/02:00pm 15.6 12.9 10.4 71 2.7 N 15 24 8 13 1008.2 1008.2 0.0
01/01:30pm 15.2 12.1 10.4 73 2.5 NNE 17 28 9 15 1008.6 1008.6 0.0
01/01:00pm 14.9 11.5 10.5 75 2.3 NNE 19 24 10 13 1008.9 1008.9 0.0
01/12:30pm 14.6 11.8 10.0 74 2.4 NNE 15 22 8 12 1009.6 1009.6 0.0
01/12:00pm 15.5 11.5 10.3 71 2.7 NNE 22 28 12 15 1010.1 1010.1 0.0
01/11:30am 15.3 12.1 10.1 71 2.7 NNE 17 26 9 14 1010.5 1010.5 0.0
01/11:00am 15.7 12.4 9.4 66 3.3 N 17 26 9 14 1011.1 1011.1 0.0
01/10:30am 15.4 12.1 9.7 69 3.0 N 17 22 9 12 1011.5 1011.5 0.0
01/10:00am 15.5 12.1 10.7 73 2.5 NNE 19 24 10 13 1011.6 1011.6 0.0
01/09:30am 14.3 11.8 11.1 81 1.7 NNE 15 22 8 12 1011.9 1011.9 0.0
01/09:00am 14.6 11.6 10.8 78 2.0 NNE 17 20 9 11 1012.0 1012.0 1.0
01/08:30am 14.0 11.9 11.0 82 1.6 NE 13 20 7 11 1011.8 1011.8 1.0
01/08:00am 13.1 10.4 11.7 91 0.7 NNE 17 22 9 12 1011.8 1011.8 1.0
01/07:30am 11.8 8.9 10.9 94 0.5 NNE 17 22 9 12 1012.2 1012.2 1.0
01/07:00am 11.4 9.1 10.3 93 0.6 ENE 13 15 7 8 1012.0 1012.0 1.0
01/06:30am 10.8 9.0 9.4 91 0.7 NW 9 13 5 7 1012.3 1012.3 0.4
01/06:00am 9.5 7.9 8.9 96 0.3 SSW 7 13 4 7 1012.0 1012.0 0.2
01/05:30am 10.3 9.1 9.5 95 0.4 NNE 6 9 3 5 1011.7 1011.7 0.2
01/05:00am 9.8 8.0 9.3 97 0.2 NNE 9 9 5 5 1011.5 1011.5 0.0
01/04:30am 8.2 6.9 7.8 97 0.2 SSW 4 11 2 6 1011.8 1011.8 0.0
01/04:00am 6.4 4.1 5.8 96 0.3 NNE 7 13 4 7 1011.9 1011.9 0.0
01/03:30am 5.9 4.1 5.3 96 0.3 ESE 4 9 2 5 1011.9 1011.9 0.0
01/03:00am 6.5 5.6 5.9 96 0.3 CALM 0 0 0 0 1012.6 1012.6 0.0
01/02:30am 5.9 3.1 5.3 96 0.3 SW 9 13 5 7 1013.1 1013.1 0.0
01/02:00am 6.1 4.7 5.4 95 0.3 NNE 2 6 1 3 1013.5 1013.5 0.0
01/01:30am 6.0 3.7 4.8 92 0.5 NNE 6 7 3 4 1013.9 1013.9 0.0
01/01:00am 8.4 6.5 7.5 94 0.4 E 7 7 4 4 1014.1 1014.1 0.0
01/12:30am 8.4 7.8 7.6 95 0.4 CALM 0 0 0 0 1014.4 1014.4 0.0
01/12:00am 10.2 8.6 8.8 91 0.7 NNE 7 9 4 5 1014.7 1014.7 0.0
 
Date/Time
CST
Temp
°C
App
Temp
°C
Dew
Point
Rel
Hum
%
Delta-T
°C
Wind Press
QNH
hPa
Press
MSL
hPa
Rain
since 9 am
mm
Dir
 
Spd
km/h
Gust
km/h
Spd
kts
Gust
kts
31/11:30pm 10.6 9.0 8.7 88 0.9 NE 7 7 4 4 1015.2 1015.2 0.0
31/11:00pm 11.0 8.7 8.9 87 1.0 NE 11 13 6 7 1015.5 1015.5 0.0
31/10:30pm 11.1 9.1 8.8 86 1.1 NE 9 11 5 6 1016.0 1016.0 0.0
31/10:00pm 12.1 10.6 9.3 83 1.4 N 7 7 4 4 1016.3 1016.3 0.0
31/09:30pm 11.2 10.7 9.3 88 0.9 NNE 2 9 1 5 1016.3 1016.3 0.0
31/09:00pm 11.7 10.7 8.7 82 1.5 E 4 7 2 4 1016.4 1016.4 0.0
31/08:30pm 11.8 10.3 9.0 83 1.4 NE 7 9 4 5 1016.4 1016.4 0.0
31/08:00pm 11.9 9.7 9.3 84 1.3 ENE 11 15 6 8 1016.4 1016.4 0.0
31/07:30pm 11.9 11.9 9.8 87 1.1 CALM 0 0 0 0 1016.4 1016.4 0.0
31/07:00pm 11.8 11.7 9.4 85 1.2 CALM 0 0 0 0 1016.5 1016.5 0.0
31/06:30pm 11.6 11.4 9.2 85 1.2 CALM 0 0 0 0 1016.6 1016.6 0.0
31/06:00pm 12.0 10.1 9.2 83 1.4 E 9 13 5 7 1016.5 1016.5 0.0
31/05:30pm 13.2 10.3 9.5 78 1.9 ENE 15 19 8 10 1016.6 1016.6 0.0
31/05:00pm 13.9 11.3 9.5 75 2.3 ENE 13 17 7 9 1016.8 1016.8 0.0
31/04:30pm 14.8 11.7 10.2 74 2.4 E 17 20 9 11 1016.8 1016.8 0.0
31/04:00pm 15.6 12.0 6.6 55 4.4 ENE 15 20 8 11 1017.0 1017.0 0.0
31/03:30pm 16.0 13.6 8.7 62 3.7 NE 11 19 6 10 1017.0 1017.0 0.0
31/03:00pm 15.5 12.9 9.2 66 3.2 NE 13 19 7 10 1017.0 1017.0 0.0
31/02:30pm 15.8 11.9 9.5 66 3.3 NE 20 26 11 14 1017.0 1017.0 0.0
31/02:00pm 15.9 12.1 8.9 63 3.6 NE 19 22 10 12 1017.5 1017.5 0.0
31/01:30pm 16.1 12.4 9.3 64 3.5 NE 19 22 10 12 1018.1 1018.1 0.0
31/01:00pm 16.2 13.3 9.8 66 3.3 NE 15 20 8 11 1018.5 1018.5 0.0
31/12:30pm 16.1 13.7 10.2 68 3.1 NE 13 22 7 12 1019.0 1019.0 0.0
31/12:00pm 15.4 12.8 9.5 68 3.0 NE 13 17 7 9 1019.6 1019.6 0.0
31/11:30am 15.5 13.2 10.5 72 2.6 NNE 13 20 7 11 1020.0 1020.0 0.0
31/11:00am 14.3 11.6 9.1 71 2.6 N 13 19 7 10 1020.4 1020.4 0.0
31/10:30am 14.8 11.6 10.0 73 2.5 NE 17 20 9 11 1020.4 1020.4 0.0
31/10:00am 13.8 10.3 8.8 72 2.5 NE 17 20 9 11 1020.7 1020.7 0.0
31/09:30am 12.1 9.7 8.8 80 1.6 NE 11 15 6 8 1020.8 1020.8 0.0
31/09:00am 9.8 9.5 8.7 93 0.5 CALM 0 0 0 0 1020.9 1020.9 0.0
31/08:30am 6.7 5.9 6.3 97 0.2 CALM 0 0 0 0 1020.9 1020.9 0.0
31/08:00am 4.4 3.1 4.1 98 0.1 CALM 0 0 0 0 1020.8 1020.8 0.0
31/07:30am 1.3 -0.5 1.0 98 0.1 CALM 0 0 0 0 1020.6 1020.6 0.0
31/07:00am 0.6 -1.3 0.3 98 0.1 CALM 0 0 0 0 1020.5 1020.5 0.0
31/06:30am 0.8 -1.1 0.5 98 0.1 CALM 0 0 0 0 1020.6 1020.6 0.0
31/06:00am 0.8 -1.1 0.5 98 0.1 CALM 0 0 0 0 1020.8 1020.8 0.0
31/05:30am 0.6 -1.3 0.3 98 0.1 CALM 0 0 0 0 1020.7 1020.7 0.0
31/05:00am 0.6 -1.4 0.2 97 0.1 CALM 0 0 0 0 1020.7 1020.7 0.0
31/04:30am 0.8 -1.1 0.5 98 0.1 CALM 0 0 0 0 1020.8 1020.8 0.0
31/04:00am 0.8 -1.1 0.4 97 0.1 CALM 0 0 0 0 1021.0 1021.0 0.0
31/03:30am 1.2 -0.7 0.8 97 0.1 CALM 0 0 0 0 1021.1 1021.1 0.0
31/03:00am 1.2 -0.7 0.8 97 0.1 CALM 0 0 0 0 1021.3 1021.3 0.0
31/02:30am 1.5 -0.3 1.1 97 0.1 CALM 0 0 0 0 1021.6 1021.6 0.0
31/02:00am 1.7 -0.1 1.3 97 0.2 CALM 0 0 0 0 1021.9 1021.9 0.0
31/01:30am 2.0 0.3 1.6 97 0.2 CALM 0 0 0 0 1022.2 1022.2 0.0
31/01:00am 2.3 0.6 1.9 97 0.2 CALM 0 0 0 0 1022.5 1022.5 0.0
31/12:30am 2.4 0.7 1.8 96 0.2 CALM 0 0 0 0 1022.4 1022.4 0.0
31/12:00am 2.3 0.6 1.6 95 0.3 CALM 0 0 0 0 1022.5 1022.5 0.0
 
Date/Time
CST
Temp
°C
App
Temp
°C
Dew
Point
Rel
Hum
%
Delta-T
°C
Wind Press
QNH
hPa
Press
MSL
hPa
Rain
since 9 am
mm
Dir
 
Spd
km/h
Gust
km/h
Spd
kts
Gust
kts
30/11:30pm 3.2 1.6 2.6 96 0.2 CALM 0 0 0 0 1022.6 1022.6 0.0
30/11:00pm 3.0 0.6 2.3 95 0.3 W 4 6 2 3 1022.9 1022.9 0.0
30/10:30pm 3.7 0.9 3.0 95 0.3 WSW 7 7 4 4 1023.0 1023.0 0.0
30/10:00pm 3.7 0.8 2.8 94 0.4 SW 7 9 4 5 1023.2 1023.2 0.0
30/09:30pm 3.9 1.1 2.9 93 0.4 WSW 7 9 4 5 1023.4 1023.4 0.0
30/09:00pm 4.7 2.0 3.5 92 0.5 SW 7 9 4 5 1023.4 1023.4 0.0
30/08:30pm 6.5 5.3 4.8 89 0.7 CALM 0 0 0 0 1023.2 1023.2 0.0
30/08:00pm 7.7 5.0 5.5 86 1.0 E 9 11 5 6 1023.1 1023.1 0.0
30/07:30pm 8.0 4.5 5.6 85 1.1 ESE 13 13 7 7 1022.9 1022.9 0.0
30/07:00pm 9.0 6.0 5.9 81 1.4 ENE 11 11 6 6 1023.1 1023.1 0.0
30/06:30pm 9.6 6.9 5.8 77 1.7 E 9 9 5 5 1023.2 1023.2 0.0
30/06:00pm 10.6 8.0 6.0 73 2.1 E 9 9 5 5 1023.2 1023.2 0.0
30/05:30pm 11.7 8.8 6.6 71 2.4 ENE 11 13 6 7 1023.1 1023.1 0.0
30/05:00pm 12.0 8.7 6.3 68 2.7 E 13 17 7 9 1023.0 1023.0 0.0
30/04:30pm 12.7 8.4 5.1 60 3.5 ENE 17 20 9 11 1022.9 1022.9 0.0
30/04:00pm 12.9 8.7 5.6 61 3.4 ENE 17 24 9 13 1023.1 1023.1 0.0
30/03:30pm 13.7 9.1 6.3 61 3.5 E 20 28 11 15 1023.0 1023.0 0.0
30/03:00pm 14.1 10.2 7.2 63 3.4 NE 17 22 9 12 1023.3 1023.3 0.0
30/02:30pm 13.9 9.7 3.9 51 4.5 NNE 15 24 8 13 1023.7 1023.7 0.0
30/02:00pm 13.9 9.9 6.5 61 3.6 NE 17 24 9 13 1023.8 1023.8 0.0
30/01:30pm 14.2 10.1 6.1 58 3.9 NE 17 28 9 15 1024.0 1024.0 0.0
30/01:00pm 14.0 9.4 3.5 49 4.7 NNE 17 24 9 13 1024.4 1024.4 0.0
30/12:30pm 13.9 9.6 5.3 56 4.0 NE 17 24 9 13 1025.1 1025.1 0.0
30/12:00pm 13.7 9.5 5.8 59 3.7 NE 17 20 9 11 1025.5 1025.5 0.0
30/11:30am 13.3 9.4 7.3 67 2.9 ENE 17 20 9 11 1025.9 1025.9 0.0
30/11:00am 12.6 8.5 6.4 66 2.9 ENE 17 26 9 14 1026.0 1026.0 0.0
30/10:30am 12.5 8.6 7.0 69 2.6 NE 17 22 9 12 1026.3 1026.3 0.0
30/10:00am 12.2 8.2 6.7 69 2.6 NE 17 24 9 13 1026.5 1026.5 0.0
30/09:30am 12.3 8.3 6.8 69 2.6 NE 17 22 9 12 1026.6 1026.6 0.0
30/09:00am 10.5 9.8 6.8 78 1.7 CALM 0 0 0 0 1026.7 1026.7 0.0
30/08:30am 7.9 7.2 7.0 94 0.4 CALM 0 0 0 0 1026.7 1026.7 0.0
30/08:00am 4.8 3.6 4.4 97 0.2 CALM 0 0 0 0 1026.7 1026.7 0.0

Other Formats:

Comma delimited format used in spreadsheet applications
http://www.bom.gov.au/fwo/IDS60801/IDS60801.95807.axf

JavaScript Object Notation format (JSON) in row-major order
http://www.bom.gov.au/fwo/IDS60801/IDS60801.95807.json